Country
Station

 

Weather  for  Rotterdam Airport Zestienhoven  -  Netherlands    Netherlands

  
14 °C (57 °F)
    
 
 

Current METAR for Rotterdam Airport Zestienhoven is :

EHRD 181455Z AUTO 05009KT 010V090 9999 BKN029 OVC032 14/08 Q1025 NOSIG

 

This is a report for Rotterdam Airport Zestienhoven - Netherlands.
 
The report was made a moment ago, at 14:55 UTC .
The wind was blowing at a speed of 4.6 meters per second (10.4 miles per hour) from northeast (050°), varying between north (010°) and east (090°).
 
The temperature was 14 °C (57 °F), with a dew-point at 8 °C (46 °F).
The atmospheric pressure was 1025 hPa (30.27 inHg).
The relative humidity was 67.1%.
 
There were broken clouds at a height of 884 meters (2900 feet). The sky was overcast from a height of 975 meter (3200 feet)
 
The overall visibility was greater than 10 kilometers (6.2 miles).
 

 
 
 
 

Country :   A   B   C   D   E   F   G   H   I   J   K   L   M   N   O   P   Q   R   S   T   U   V   W   Y   Z

 

Site Info  |  Disclaimer  |  Credits  |  Privacy
Contact us  |  Add to favorites
© 2013-2018 METARs - All rights reserved